createdAt,value
2018-03-24T00:00:07.145Z,11.90
2018-03-24T00:02:35.059Z,12.00
2018-03-24T00:05:02.977Z,12.03
2018-03-24T00:07:30.923Z,15.70
2018-03-24T00:09:58.878Z,14.10
2018-03-24T00:12:26.771Z,12.83
2018-03-24T00:14:54.673Z,12.93
2018-03-24T00:17:22.611Z,14.33
2018-03-24T00:19:50.547Z,14.27
2018-03-24T00:22:18.487Z,12.60
2018-03-24T00:24:46.444Z,12.90
2018-03-24T00:27:14.387Z,13.43
2018-03-24T00:29:42.586Z,11.53
2018-03-24T00:32:10.507Z,13.00
2018-03-24T00:34:38.443Z,11.97
2018-03-24T00:37:06.397Z,14.83
2018-03-24T00:39:34.380Z,11.90
2018-03-24T00:42:02.369Z,17.73
2018-03-24T00:44:30.267Z,11.57
2018-03-24T00:46:58.192Z,12.60
2018-03-24T00:49:26.120Z,17.20
2018-03-24T00:51:54.053Z,13.00
2018-03-24T00:54:22.007Z,15.27
2018-03-24T00:56:49.941Z,12.47
2018-03-24T00:59:17.941Z,12.20
2018-03-24T01:01:45.980Z,16.47
2018-03-24T01:04:13.971Z,18.17
2018-03-24T01:06:41.880Z,12.10
2018-03-24T01:09:09.783Z,18.73
2018-03-24T01:11:37.706Z,14.13
2018-03-24T01:14:05.619Z,12.77
2018-03-24T01:16:33.544Z,11.93
2018-03-24T01:19:01.491Z,12.40
2018-03-24T01:21:29.404Z,10.57
2018-03-24T01:23:57.304Z,11.80
2018-03-24T01:26:25.248Z,12.63
2018-03-24T01:28:53.154Z,11.17
2018-03-24T01:31:21.280Z,14.43
2018-03-24T01:33:49.217Z,12.87
2018-03-24T01:36:17.147Z,12.50
2018-03-24T01:38:45.071Z,12.53
2018-03-24T01:41:13.030Z,11.40
2018-03-24T01:43:41.009Z,13.17
2018-03-24T01:46:08.916Z,11.13
2018-03-24T01:48:36.827Z,12.47
2018-03-24T01:51:04.727Z,11.50
2018-03-24T01:53:39.157Z,15.03
2018-03-24T01:56:07.084Z,15.10
2018-03-24T01:58:35.014Z,13.67
2018-03-24T02:01:02.952Z,15.20
2018-03-24T02:03:30.863Z,13.00
2018-03-24T02:05:58.767Z,15.77
2018-03-24T02:08:26.670Z,14.93
2018-03-24T02:10:54.576Z,15.77
2018-03-24T02:13:22.503Z,17.00
2018-03-24T02:15:50.416Z,14.90
2018-03-24T02:18:18.371Z,13.87
2018-03-24T02:20:46.402Z,13.50
2018-03-24T02:23:14.307Z,12.47
2018-03-24T02:25:42.223Z,13.30
2018-03-24T02:28:10.183Z,10.83
2018-03-24T02:30:38.128Z,13.90
2018-03-24T02:33:06.041Z,13.30
2018-03-24T02:35:33.959Z,15.83
2018-03-24T02:38:01.869Z,13.13
2018-03-24T02:40:29.803Z,15.10
2018-03-24T02:42:57.723Z,14.17
2018-03-24T02:45:25.664Z,14.73
2018-03-24T02:47:53.865Z,16.13
2018-03-24T02:50:21.770Z,16.77
2018-03-24T02:52:49.667Z,14.17
2018-03-24T02:55:17.902Z,16.87
2018-03-24T02:57:45.828Z,15.10
2018-03-24T03:00:13.740Z,15.17
2018-03-24T03:02:41.655Z,16.60
2018-03-24T03:05:09.555Z,15.47
2018-03-24T03:07:37.457Z,15.70
2018-03-24T03:10:05.380Z,14.03
2018-03-24T03:12:33.306Z,13.40
2018-03-24T03:15:01.272Z,14.43
2018-03-24T03:17:30.267Z,18.47
2018-03-24T03:19:58.202Z,15.63
2018-03-24T03:22:26.121Z,18.37
2018-03-24T03:24:54.405Z,16.37
2018-03-24T03:27:22.342Z,13.73
2018-03-24T03:29:50.247Z,15.43
2018-03-24T03:32:18.163Z,15.73
2018-03-24T03:34:46.450Z,14.90
2018-03-24T03:37:14.383Z,18.03
2018-03-24T03:39:42.333Z,20.33
2018-03-24T03:42:10.211Z,15.13
2018-03-24T03:44:38.149Z,15.03
2018-03-24T03:47:06.079Z,18.43
2018-03-24T03:49:33.999Z,15.83
2018-03-24T03:52:01.928Z,15.57
2018-03-24T03:54:29.837Z,16.43
2018-03-24T03:56:57.793Z,20.10
2018-03-24T03:59:25.720Z,15.67
2018-03-24T04:01:53.636Z,20.30
2018-03-24T04:04:21.561Z,13.10
2018-03-24T04:06:49.468Z,17.30
2018-03-24T04:09:17.387Z,16.27
2018-03-24T04:11:45.306Z,17.67
2018-03-24T04:14:13.207Z,17.80
2018-03-24T04:16:41.187Z,18.67
2018-03-24T04:19:09.261Z,17.70
2018-03-24T04:21:37.250Z,17.60
2018-03-24T04:24:05.219Z,19.17
2018-03-24T04:26:33.159Z,17.50
2018-03-24T04:29:01.068Z,18.27
2018-03-24T04:31:28.980Z,16.53
2018-03-24T04:33:56.895Z,16.10
2018-03-24T04:36:25.155Z,19.83
2018-03-24T04:38:53.106Z,18.00
2018-03-24T04:41:20.999Z,22.37
2018-03-24T04:43:48.912Z,16.70
2018-03-24T04:46:16.833Z,16.23
2018-03-24T04:48:44.767Z,19.90
2018-03-24T04:51:12.656Z,23.10
2018-03-24T04:53:40.582Z,18.77
2018-03-24T04:56:08.492Z,21.97
2018-03-24T04:58:36.425Z,24.93
2018-03-24T05:01:04.368Z,20.80
2018-03-24T05:03:32.292Z,19.17
2018-03-24T05:06:00.199Z,21.77
2018-03-24T05:08:28.289Z,20.67
2018-03-24T05:10:56.199Z,23.20
2018-03-24T05:13:24.099Z,28.10
2018-03-24T05:15:52.044Z,23.87
2018-03-24T05:18:19.944Z,25.93
2018-03-24T05:20:47.838Z,24.33
2018-03-24T05:23:15.769Z,22.10
2018-03-24T05:25:43.677Z,19.80
2018-03-24T05:28:11.620Z,19.23
2018-03-24T05:30:39.562Z,25.33
2018-03-24T05:33:07.468Z,22.43
2018-03-24T05:35:35.796Z,23.80
2018-03-24T05:38:03.720Z,28.23
2018-03-24T05:40:31.620Z,24.00
2018-03-24T05:42:59.581Z,23.87
2018-03-24T05:45:27.516Z,24.77
2018-03-24T05:47:55.424Z,24.50
2018-03-24T05:50:23.343Z,25.67
2018-03-24T05:52:51.259Z,24.50
2018-03-24T05:55:19.183Z,23.97
2018-03-24T05:57:47.099Z,28.47
2018-03-24T06:00:15.165Z,26.25
2018-03-24T06:02:43.228Z,23.10
2018-03-24T06:05:11.410Z,26.27
2018-03-24T06:07:39.598Z,26.08
2018-03-24T06:10:07.727Z,25.40
2018-03-24T06:12:36.952Z,21.30
2018-03-24T06:15:04.893Z,25.30
2018-03-24T06:17:32.848Z,25.07
2018-03-24T06:20:00.772Z,26.90
2018-03-24T06:22:32.309Z,24.63
2018-03-24T06:25:00.244Z,31.10
2018-03-24T06:27:28.139Z,25.07
2018-03-24T06:29:56.056Z,25.58
2018-03-24T06:32:24.255Z,25.93
2018-03-24T06:34:52.251Z,29.80
2018-03-24T06:37:20.207Z,26.13
2018-03-24T06:39:48.512Z,29.23
2018-03-24T06:42:16.411Z,23.97
2018-03-24T06:44:44.365Z,30.03
2018-03-24T06:47:12.243Z,30.43
2018-03-24T06:49:40.167Z,24.33
2018-03-24T06:52:08.111Z,31.73
2018-03-24T06:54:36.059Z,29.67
2018-03-24T06:57:03.959Z,31.77
2018-03-24T06:59:31.853Z,25.60
2018-03-24T07:01:59.970Z,25.30
2018-03-24T07:04:27.965Z,31.93
2018-03-24T07:06:57.760Z,25.50
2018-03-24T07:09:26.239Z,30.57
2018-03-24T07:11:54.235Z,31.10
2018-03-24T07:14:22.361Z,28.90
2018-03-24T07:16:50.412Z,30.33
2018-03-24T07:19:18.356Z,27.53
2018-03-24T07:21:46.514Z,30.47
2018-03-24T07:24:14.651Z,30.93
2018-03-24T07:26:42.882Z,27.87
2018-03-24T07:29:10.922Z,31.60
2018-03-24T07:31:38.871Z,29.07
2018-03-24T07:34:06.816Z,31.70
2018-03-24T07:36:34.788Z,30.80
2018-03-24T07:39:02.832Z,32.23
2018-03-24T07:41:31.072Z,28.03
2018-03-24T07:43:59.042Z,33.70
2018-03-24T07:46:26.934Z,36.90
2018-03-24T07:48:54.880Z,32.37
2018-03-24T07:51:22.956Z,40.20
2018-03-24T07:53:51.160Z,32.03
2018-03-24T07:56:19.099Z,33.23
2018-03-24T07:58:47.002Z,33.83
2018-03-24T08:01:14.928Z,31.97
2018-03-24T08:03:42.823Z,38.37
2018-03-24T08:06:10.739Z,32.90
2018-03-24T08:08:38.688Z,37.57
2018-03-24T08:11:06.587Z,40.63
2018-03-24T08:13:34.507Z,30.33
2018-03-24T08:16:02.468Z,35.53
2018-03-24T08:18:30.375Z,32.33
2018-03-24T08:20:58.275Z,35.10
2018-03-24T08:23:26.555Z,37.43
2018-03-24T08:25:54.504Z,35.73
2018-03-24T08:28:22.442Z,37.10
2018-03-24T08:30:50.612Z,35.67
2018-03-24T08:33:18.661Z,32.73
2018-03-24T08:35:46.763Z,31.77
2018-03-24T08:38:14.697Z,36.40
2018-03-24T08:40:42.614Z,37.57
2018-03-24T08:43:10.943Z,35.73
2018-03-24T08:45:38.868Z,32.57
2018-03-24T08:48:06.821Z,39.03
2018-03-24T08:50:34.795Z,39.73
2018-03-24T08:53:02.712Z,44.17
2018-03-24T08:55:30.751Z,39.33
2018-03-24T08:57:58.599Z,43.97
2018-03-24T09:00:26.511Z,43.20
2018-03-24T09:02:54.581Z,39.83
2018-03-24T09:05:22.507Z,42.70
2018-03-24T09:07:50.465Z,41.10
2018-03-24T09:10:18.387Z,40.80
2018-03-24T09:12:46.323Z,40.87
2018-03-24T09:15:14.248Z,39.03
2018-03-24T09:17:42.168Z,41.70
2018-03-24T09:20:10.071Z,41.67
2018-03-24T09:22:37.988Z,44.87
2018-03-24T09:25:05.920Z,49.40
2018-03-24T09:27:33.843Z,44.13
2018-03-24T09:30:01.781Z,47.03
2018-03-24T09:32:29.705Z,45.27
2018-03-24T09:34:57.660Z,48.27
2018-03-24T09:37:25.552Z,42.17
2018-03-24T09:39:54.370Z,45.60
2018-03-24T09:42:22.334Z,50.40
2018-03-24T09:44:50.271Z,42.50
2018-03-24T09:47:18.234Z,49.87
2018-03-24T09:49:46.136Z,45.67
2018-03-24T09:52:14.083Z,44.67
2018-03-24T09:54:42.087Z,46.63
2018-03-24T09:57:10.169Z,45.00
2018-03-24T09:59:38.344Z,47.70
2018-03-24T10:02:06.104Z,61.47
2018-03-24T10:04:34.008Z,48.77
2018-03-24T10:07:02.096Z,51.63
2018-03-24T10:09:29.991Z,51.43
2018-03-24T10:11:57.911Z,51.63
2018-03-24T10:14:25.866Z,54.43
2018-03-24T10:16:53.755Z,55.97
2018-03-24T10:19:21.673Z,53.10
2018-03-24T10:24:45.576Z,48.13
2018-03-24T10:27:13.622Z,59.57
2018-03-24T10:29:41.632Z,54.27
2018-03-24T10:32:09.562Z,47.90
2018-03-24T10:34:37.512Z,56.83
2018-03-24T10:37:05.447Z,50.27
2018-03-24T10:39:33.441Z,53.10
2018-03-24T10:42:01.413Z,57.50
2018-03-24T10:44:29.300Z,48.90
2018-03-24T10:46:57.448Z,50.53
2018-03-24T10:49:25.376Z,53.50
2018-03-24T10:51:53.359Z,53.70
2018-03-24T10:54:21.269Z,56.77
2018-03-24T10:56:49.187Z,55.27
2018-03-24T10:59:17.116Z,62.70
2018-03-24T11:01:45.029Z,57.13
2018-03-24T11:04:12.952Z,53.37
2018-03-24T11:06:40.884Z,58.53
2018-03-24T11:09:08.797Z,52.80
2018-03-24T11:11:36.711Z,61.07
2018-03-24T11:14:05.016Z,60.83
2018-03-24T11:16:32.907Z,68.97
2018-03-24T11:19:00.843Z,71.20
2018-03-24T11:21:29.131Z,70.80
2018-03-24T11:23:57.056Z,66.20
2018-03-24T11:26:24.947Z,65.43
2018-03-24T11:28:52.872Z,62.80
2018-03-24T11:31:20.775Z,61.97
2018-03-24T11:33:48.699Z,66.07
2018-03-24T11:36:16.633Z,65.37
2018-03-24T11:38:44.528Z,63.67
2018-03-24T11:41:12.482Z,61.87
2018-03-24T11:43:40.402Z,64.13
2018-03-24T11:46:08.312Z,76.97
2018-03-24T11:48:36.612Z,65.27
2018-03-24T11:51:04.511Z,75.20
2018-03-24T11:53:38.505Z,95.37
2018-03-24T11:56:06.390Z,67.00
2018-03-24T11:58:34.320Z,69.60
2018-03-24T12:01:02.239Z,69.07
2018-03-24T12:03:30.143Z,66.93
2018-03-24T12:05:58.044Z,69.30
2018-03-24T12:08:25.959Z,70.30
2018-03-24T12:10:53.891Z,65.30
2018-03-24T12:13:21.800Z,66.53
2018-03-24T12:15:49.708Z,62.67
2018-03-24T12:18:17.651Z,69.87
2018-03-24T12:20:45.567Z,63.80
2018-03-24T12:23:13.495Z,79.27
2018-03-24T12:25:41.436Z,62.70
2018-03-24T12:28:09.332Z,64.37
2018-03-24T12:30:37.231Z,70.77
2018-03-24T12:33:05.148Z,63.97
2018-03-24T12:35:33.120Z,72.60
2018-03-24T12:38:01.043Z,68.07
2018-03-24T12:40:28.977Z,64.83
2018-03-24T12:42:56.888Z,62.80
2018-03-24T12:45:24.849Z,67.23
2018-03-24T12:47:52.754Z,59.53
2018-03-24T12:50:21.083Z,63.83
2018-03-24T12:52:48.982Z,64.77
2018-03-24T12:55:16.891Z,60.73
2018-03-24T12:57:44.823Z,57.50
2018-03-24T13:00:12.743Z,67.90
2018-03-24T13:02:40.643Z,60.17
2018-03-24T13:05:08.543Z,64.40
2018-03-24T13:07:36.448Z,70.43
2018-03-24T13:10:04.620Z,61.97
2018-03-24T13:12:32.568Z,56.30
2018-03-24T13:15:00.485Z,55.00
2018-03-24T13:17:28.398Z,62.17
2018-03-24T13:19:56.306Z,57.43
2018-03-24T13:22:24.207Z,58.03
2018-03-24T13:24:52.123Z,61.00
2018-03-24T13:27:20.074Z,65.37
2018-03-24T13:29:47.975Z,59.23
2018-03-24T13:32:15.869Z,69.57
2018-03-24T13:34:43.771Z,75.83
2018-03-24T13:37:11.668Z,93.10
2018-03-24T13:39:39.579Z,54.60
2018-03-24T13:42:07.480Z,57.87
2018-03-24T13:44:35.387Z,55.27
2018-03-24T13:47:03.336Z,56.00
2018-03-24T13:49:31.298Z,61.17
2018-03-24T13:51:59.552Z,59.73
2018-03-24T13:54:27.511Z,54.33
2018-03-24T13:56:55.480Z,56.87
2018-03-24T13:59:23.440Z,64.33
2018-03-24T14:01:51.555Z,60.10
2018-03-24T14:04:19.487Z,61.63
2018-03-24T14:06:47.400Z,67.07
2018-03-24T14:09:15.311Z,52.80
2018-03-24T14:11:43.251Z,54.03
2018-03-24T14:14:11.181Z,57.93
2018-03-24T14:16:39.092Z,62.17
2018-03-24T14:19:07.014Z,57.93
2018-03-24T14:21:35.022Z,54.07
2018-03-24T14:24:02.923Z,52.40
2018-03-24T14:26:30.827Z,53.97
2018-03-24T14:28:58.786Z,55.97
2018-03-24T14:31:26.707Z,51.10
2018-03-24T14:33:57.002Z,49.50
2018-03-24T14:36:25.015Z,51.33
2018-03-24T14:38:52.931Z,53.90
2018-03-24T14:41:20.891Z,39.63
2018-03-24T14:43:48.838Z,48.67
2018-03-24T14:46:16.767Z,39.50
2018-03-24T14:48:44.761Z,39.97
2018-03-24T14:51:12.591Z,40.93
2018-03-24T14:53:40.548Z,39.67
2018-03-24T14:56:08.538Z,37.83
2018-03-24T14:58:36.453Z,44.47
2018-03-24T15:01:04.354Z,38.30
2018-03-24T15:03:32.267Z,35.40
2018-03-24T15:06:00.205Z,36.50
2018-03-24T15:08:28.132Z,33.97
2018-03-24T15:10:56.138Z,37.40
2018-03-24T15:13:24.070Z,34.20
2018-03-24T15:15:51.995Z,37.43
2018-03-24T15:18:19.922Z,35.57
2018-03-24T15:20:47.815Z,33.53
2018-03-24T15:23:15.732Z,31.23
2018-03-24T15:25:43.630Z,30.80
2018-03-24T15:28:11.534Z,27.27
2018-03-24T15:30:45.605Z,31.00
2018-03-24T15:33:19.910Z,28.30
2018-03-24T15:35:54.060Z,31.03
2018-03-24T15:38:21.990Z,30.10
2018-03-24T15:40:49.890Z,31.43
2018-03-24T15:43:17.811Z,30.17
2018-03-24T15:45:45.962Z,29.80
2018-03-24T15:48:13.860Z,35.70
2018-03-24T15:50:41.792Z,29.77
2018-03-24T15:53:09.744Z,28.53
2018-03-24T15:55:37.697Z,31.30
2018-03-24T15:58:05.608Z,39.13
2018-03-24T16:00:33.567Z,27.23
2018-03-24T16:03:01.480Z,27.93
2018-03-24T16:05:29.485Z,29.63
2018-03-24T16:07:57.412Z,28.93
2018-03-24T16:10:25.340Z,30.73
2018-03-24T16:12:53.427Z,29.67
2018-03-24T16:15:21.389Z,30.10
2018-03-24T16:17:49.247Z,28.90
2018-03-24T16:20:17.184Z,33.03
2018-03-24T16:22:45.096Z,31.20
2018-03-24T16:25:13.027Z,32.07
2018-03-24T16:27:40.951Z,37.10
2018-03-24T16:30:08.873Z,37.80
2018-03-24T16:32:36.823Z,38.67
2018-03-24T16:35:04.776Z,31.10
2018-03-24T16:37:32.680Z,28.40
2018-03-24T16:40:00.619Z,29.43
2018-03-24T16:42:28.528Z,33.13
2018-03-24T16:44:56.431Z,28.10
2018-03-24T16:47:24.372Z,32.10
2018-03-24T16:49:52.275Z,27.43
2018-03-24T16:52:20.217Z,33.23
2018-03-24T16:54:48.135Z,28.23
2018-03-24T16:57:16.267Z,29.53
2018-03-24T16:59:44.177Z,29.10
2018-03-24T17:02:12.148Z,29.57
2018-03-24T17:04:46.967Z,31.07
2018-03-24T17:07:14.903Z,28.03
2018-03-24T17:09:42.808Z,29.90
2018-03-24T17:12:10.718Z,36.60
2018-03-24T17:14:38.636Z,30.93
2018-03-24T17:17:06.540Z,36.67
2018-03-24T17:19:34.439Z,27.20
2018-03-24T17:22:02.352Z,33.40
2018-03-24T17:24:30.255Z,30.57
2018-03-24T17:26:58.489Z,32.00
2018-03-24T17:29:26.394Z,31.93
2018-03-24T17:31:54.336Z,30.40
2018-03-24T17:34:22.299Z,32.47
2018-03-24T17:36:50.206Z,33.10
2018-03-24T17:39:18.104Z,32.17
2018-03-24T17:41:46.025Z,40.50
2018-03-24T17:44:14.100Z,33.00
2018-03-24T17:46:42.040Z,40.00
2018-03-24T17:49:09.948Z,32.47
2018-03-24T17:51:37.880Z,35.37
2018-03-24T17:54:05.892Z,41.40
2018-03-24T17:56:33.796Z,31.87
2018-03-24T17:59:01.721Z,31.37
2018-03-24T18:01:29.640Z,29.93
2018-03-24T18:03:57.581Z,29.20
2018-03-24T18:06:25.977Z,27.90
2018-03-24T18:08:53.910Z,31.00
2018-03-24T18:11:21.827Z,26.93
2018-03-24T18:13:49.763Z,27.40
2018-03-24T18:16:17.682Z,26.40
2018-03-24T18:18:45.557Z,24.87
2018-03-24T18:21:13.483Z,24.80
2018-03-24T18:23:41.380Z,23.20
2018-03-24T18:26:09.285Z,25.43
2018-03-24T18:28:37.212Z,26.37
2018-03-24T18:31:05.110Z,21.43
2018-03-24T18:33:33.019Z,28.27
2018-03-24T18:36:00.946Z,29.13
2018-03-24T18:38:28.848Z,26.70
2018-03-24T18:40:56.757Z,24.47
2018-03-24T18:43:24.686Z,26.53
2018-03-24T18:45:52.621Z,23.27
2018-03-24T18:48:20.556Z,24.83
2018-03-24T18:50:48.483Z,23.13
2018-03-24T18:53:16.393Z,27.50
2018-03-24T18:55:44.319Z,31.23
2018-03-24T18:58:12.227Z,28.80
2018-03-24T19:00:40.174Z,29.77
2018-03-24T19:03:08.069Z,31.30
2018-03-24T19:05:36.098Z,31.53
2018-03-24T19:08:04.013Z,34.67
2018-03-24T19:10:32.773Z,29.50
2018-03-24T19:13:00.763Z,31.73
2018-03-24T19:15:28.673Z,33.30
2018-03-24T19:17:56.577Z,36.37
2018-03-24T19:20:24.492Z,28.83
2018-03-24T19:22:52.407Z,24.43
2018-03-24T19:25:20.427Z,24.23
2018-03-24T19:27:48.338Z,22.50
2018-03-24T19:30:16.295Z,23.70
2018-03-24T19:32:44.355Z,24.30
2018-03-24T19:35:12.255Z,23.73
2018-03-24T19:37:40.148Z,21.07
2018-03-24T19:40:08.051Z,25.10
2018-03-24T19:42:35.935Z,21.63
2018-03-24T19:45:03.839Z,24.07
2018-03-24T19:47:31.744Z,24.60
2018-03-24T19:49:59.644Z,21.53
2018-03-24T19:52:27.923Z,27.60
2018-03-24T19:54:55.784Z,25.10
2018-03-24T19:57:23.702Z,27.40
2018-03-24T19:59:51.631Z,22.60
2018-03-24T20:02:19.809Z,23.80
2018-03-24T20:04:47.747Z,20.70
2018-03-24T20:07:15.679Z,29.10
2018-03-24T20:09:43.564Z,21.50
2018-03-24T20:12:11.465Z,22.87
2018-03-24T20:14:39.711Z,26.40
2018-03-24T20:17:07.607Z,25.83
2018-03-24T20:19:35.510Z,30.67
2018-03-24T20:22:03.441Z,24.60
2018-03-24T20:24:31.331Z,28.87
2018-03-24T20:26:59.228Z,31.13
2018-03-24T20:29:27.174Z,26.53
2018-03-24T20:31:55.124Z,30.30
2018-03-24T20:34:23.039Z,26.07
2018-03-24T20:36:50.959Z,28.50
2018-03-24T20:39:18.882Z,26.57
2018-03-24T20:41:46.784Z,25.70
2018-03-24T20:44:14.705Z,22.50
2018-03-24T20:46:42.629Z,25.20
2018-03-24T20:49:10.532Z,25.73
2018-03-24T20:51:38.463Z,28.30
2018-03-24T20:54:06.357Z,28.13
2018-03-24T20:56:34.248Z,28.77
2018-03-24T20:59:02.151Z,30.13
2018-03-24T21:01:31.946Z,31.50
2018-03-24T21:04:00.048Z,29.43
2018-03-24T21:06:28.001Z,31.07
2018-03-24T21:08:55.951Z,24.97
2018-03-24T21:11:23.852Z,35.00
2018-03-24T21:13:51.793Z,30.40
2018-03-24T21:16:19.696Z,30.57
2018-03-24T21:18:47.599Z,29.53
2018-03-24T21:21:15.546Z,26.80
2018-03-24T21:23:43.458Z,26.83
2018-03-24T21:26:11.371Z,27.00
2018-03-24T21:28:39.288Z,29.77
2018-03-24T21:31:07.192Z,29.03
2018-03-24T21:33:35.115Z,27.77
2018-03-24T21:36:03.041Z,26.50
2018-03-24T21:38:30.959Z,26.93
2018-03-24T21:40:58.872Z,28.07
2018-03-24T21:43:26.896Z,28.73
2018-03-24T21:45:54.807Z,31.87
2018-03-24T21:48:22.718Z,33.90
2018-03-24T21:50:50.699Z,31.00
2018-03-24T21:53:18.599Z,30.07
2018-03-24T21:55:47.251Z,32.40
2018-03-24T21:58:16.458Z,29.53
2018-03-24T22:00:44.786Z,33.17
2018-03-24T22:03:13.715Z,31.67
2018-03-24T22:05:42.475Z,29.83
2018-03-24T22:08:11.003Z,30.03
2018-03-24T22:10:39.163Z,28.97
2018-03-24T22:13:08.078Z,26.37
2018-03-24T22:15:36.970Z,26.70
2018-03-24T22:18:05.156Z,29.80
2018-03-24T22:20:34.140Z,25.30
2018-03-24T22:23:02.407Z,30.90
2018-03-24T22:25:30.334Z,27.30
2018-03-24T22:27:58.579Z,29.87
2018-03-24T22:30:26.500Z,28.17
2018-03-24T22:32:54.407Z,23.60
2018-03-24T22:35:22.315Z,32.20
2018-03-24T22:37:50.233Z,27.23
2018-03-24T22:40:18.160Z,29.20
2018-03-24T22:42:46.070Z,25.00
2018-03-24T22:45:14.048Z,25.43
2018-03-24T22:47:42.069Z,25.80
2018-03-24T22:50:10.118Z,26.03
2018-03-24T22:52:38.064Z,23.77
2018-03-24T22:55:05.980Z,26.17
2018-03-24T22:57:33.888Z,27.33
2018-03-24T23:00:01.819Z,25.97
2018-03-24T23:02:29.717Z,26.33
2018-03-24T23:04:57.603Z,32.20
2018-03-24T23:07:25.700Z,24.27
2018-03-24T23:09:53.600Z,27.10
2018-03-24T23:12:21.508Z,23.90
2018-03-24T23:14:49.433Z,24.43
2018-03-24T23:17:17.791Z,28.67
2018-03-24T23:19:45.774Z,30.00
2018-03-24T23:22:13.685Z,25.93
2018-03-24T23:24:41.620Z,27.70
2018-03-24T23:27:09.527Z,25.77
2018-03-24T23:29:37.423Z,25.87
2018-03-24T23:32:05.338Z,28.10
2018-03-24T23:34:33.249Z,23.27
2018-03-24T23:37:01.164Z,26.17
2018-03-24T23:39:29.087Z,25.63
2018-03-24T23:41:56.999Z,26.70
2018-03-24T23:44:24.899Z,29.73
2018-03-24T23:46:52.800Z,28.97
2018-03-24T23:49:20.707Z,23.40
2018-03-24T23:51:48.803Z,22.60
2018-03-24T23:54:16.751Z,25.20
2018-03-24T23:56:44.656Z,26.90
2018-03-24T23:59:12.568Z,23.67
